首页
METAR-TAF:

METAR-TAF

机场 :

Lechfeld, 德国

纬度: 48-11N, 经度: 010-52E, 海拔: 555米

当前天气观测

该预报发布于51分钟前的13:20 UTC
风速3节,风向西
温度 14°C
湿度 82%
气压 1018 hPa
能见度10公里或以上
少量云层高于1000英尺
散云层高于3500英尺
多云层高于6000英尺
小雨

METAR: ETSL 041320Z 26003KT 9999 -RA FEW010 SCT035 BKN060 14/11 Q1018 BLU BLU TEMPO WHT

时间: 16:11 (14:11 UTC)

预报

该预报发布于2小时和56分钟前的11:15 UTC
预报有效从04日的 11点(UTC)到 04日的 20点(UTC)
风速6节,风向北转西北
能见度10公里或以上
多云层高于7000英尺
短暂存在
从 04日的 11点(UTC)到 04日的 18点(UTC)
风速10节,风向多变,有时为20节阵风
能見度: 5000
多云层高于2000英尺, 积雨云.
多云层高于7000英尺
阵雨

TAF: ETSL 041115Z 0411/0420 34006KT 9999 NSW BKN070 TEMPO 0411/0418 VRB10G20KT 5000 SHRA BKN020CB BKN070 BY ETGL

超过4000个机场的气象观测和天气预报(METAR&TAF报告)。

可查询的气象台以黄色和红色小点在地图上表示。

将鼠标移到小点上方,可查看气象台名称。

然后点击查看天气观测和预报。

如需切换地图:点击带黑十字的绿色按钮放大地图;点击带横线的绿色按钮缩小地图;或者点击绿色箭头查看邻近地区的地图。


METAR-TAF: